Time;durP1;ratioP1;P1;durP2;ratioP2;P2;SDS_P1;SDS_P2;PMS_P1;PMS_P2;Temp;Humidity;BMP_temperature;BMP_pressure;BME280_temperature;BME280_humidity;BME280_pressure;Samples;Min_cycle;Max_cycle;Signal;HPM_P1;HPM_P2
2023/08/21 00:00:37;;;;;;;5.53;1.80;;;;;;;26.21;47.48;102426.97;5044109;28;20102;-35
2023/08/21 00:03:03;;;;;;;3.90;1.90;;;;;;;26.21;47.35;102432.41;5045063;28;20056;-35
2023/08/21 00:05:30;;;;;;;3.50;1.75;;;;;;;26.20;47.59;102425.25;5040103;28;20132;-35
2023/08/21 00:07:57;;;;;;;3.13;2.00;;;;;;;26.20;47.59;102424.41;5045259;28;20053;-35
2023/08/21 00:10:23;;;;;;;4.80;1.70;;;;;;;26.18;47.60;102431.88;5045742;28;20445;-35
2023/08/21 00:12:50;;;;;;;4.70;1.70;;;;;;;26.18;47.50;102426.44;5048247;28;20057;-35
2023/08/21 00:15:17;;;;;;;3.05;1.70;;;;;;;26.16;47.73;102429.31;5042284;28;20041;-35
2023/08/21 00:17:44;;;;;;;4.70;1.80;;;;;;;26.16;47.67;102428.47;5044548;28;20064;-35
2023/08/21 00:20:11;;;;;;;4.85;1.98;;;;;;;26.15;47.68;102430.34;5044868;28;20429;-35
2023/08/21 00:22:37;;;;;;;4.53;1.50;;;;;;;26.14;47.64;102434.09;5040739;28;20118;-35
2023/08/21 00:25:05;;;;;;;2.97;1.65;;;;;;;26.14;47.38;102435.97;5037736;28;20049;-35
2023/08/21 00:27:31;;;;;;;5.53;2.05;;;;;;;26.13;47.54;102436.94;5041172;28;20440;-35
2023/08/21 00:30:00;;;;;;;3.88;1.70;;;;;;;26.11;47.65;102439.84;5039195;28;20049;-35
2023/08/21 00:32:27;;;;;;;2.10;1.50;;;;;;;26.11;47.79;102436.28;5040703;28;20063;-35
2023/08/21 00:34:54;;;;;;;3.20;1.90;;;;;;;26.11;47.73;102436.28;5040045;28;20053;-35
2023/08/21 00:37:20;;;;;;;3.25;1.45;;;;;;;26.11;47.72;102425.41;5038269;28;20127;-35
2023/08/21 00:39:47;;;;;;;2.50;1.70;;;;;;;26.09;47.87;102426.44;5037337;28;20049;-35
2023/08/21 00:42:13;;;;;;;2.22;1.40;;;;;;;26.09;47.99;102428.28;5042602;28;20128;-35
2023/08/21 00:44:40;;;;;;;4.30;1.85;;;;;;;26.07;47.82;102419.47;5045310;28;20056;-35
2023/08/21 00:47:07;;;;;;;4.72;1.50;;;;;;;26.06;47.91;102426.78;5034350;28;20092;-35
2023/08/21 00:49:34;;;;;;;3.58;1.50;;;;;;;26.05;47.94;102418.78;5042340;28;20056;-35
2023/08/21 00:52:01;;;;;;;2.95;1.58;;;;;;;26.04;47.91;102426.09;5041947;28;20114;-35
2023/08/21 00:54:28;;;;;;;4.05;1.75;;;;;;;26.03;47.92;102412.66;5044511;28;20086;-35
2023/08/21 00:56:55;;;;;;;2.67;1.58;;;;;;;26.01;48.11;102420.13;5041937;28;20065;-34
2023/08/21 00:59:22;;;;;;;4.68;1.60;;;;;;;26.00;48.00;102418.44;5043563;28;20049;-35
2023/08/21 01:01:49;;;;;;;2.20;1.30;;;;;;;26.00;48.09;102410.28;5040318;28;20045;-35
2023/08/21 01:04:15;;;;;;;2.33;1.38;;;;;;;26.01;48.06;102414.69;5042949;28;20075;-35
2023/08/21 01:06:42;;;;;;;5.30;1.50;;;;;;;25.98;48.09;102415.91;5039347;28;20055;-35
2023/08/21 01:09:17;;;;;;;3.63;1.42;;;;;;;25.97;48.39;102414.22;5039606;28;20433;-35
2023/08/21 01:12:00;;;;;;;3.83;1.48;;;;;;;25.97;48.32;102416.06;5043042;28;20139;-34
2023/08/21 01:14:55;;;;;;;3.88;1.42;;;;;;;25.93;48.26;102407.41;5043639;28;20048;-35
2023/08/21 01:17:23;;;;;;;2.10;1.15;;;;;;;25.95;48.21;102410.78;5037020;28;20056;-35
2023/08/21 01:19:51;;;;;;;3.15;1.48;;;;;;;25.94;48.42;102422.69;5038813;28;20148;-34
2023/08/21 01:22:18;;;;;;;2.22;1.23;;;;;;;25.93;48.42;102426.44;5045227;28;20041;-35
2023/08/21 01:24:45;;;;;;;3.65;1.50;;;;;;;25.93;48.42;102417.41;5045784;28;20080;-35
2023/08/21 01:27:14;;;;;;;3.55;1.63;;;;;;;25.92;48.48;102418.44;5046188;28;20048;-35
2023/08/21 01:29:40;;;;;;;4.00;1.95;;;;;;;25.92;48.22;102426.56;5042558;28;20490;-35
2023/08/21 01:32:21;;;;;;;3.58;1.48;;;;;;;25.90;48.49;102425.91;5044657;28;20417;-35
2023/08/21 01:34:50;;;;;;;4.75;1.30;;;;;;;25.89;48.62;102419.63;5046356;28;20096;-35
2023/08/21 01:37:17;;;;;;;3.50;1.25;;;;;;;25.88;48.47;102422.50;5044434;28;20128;-35
2023/08/21 01:39:44;;;;;;;4.70;1.30;;;;;;;25.85;48.47;102421.00;5041908;28;20119;-35
2023/08/21 01:42:11;;;;;;;2.45;1.17;;;;;;;25.85;48.60;102426.41;5042787;28;20397;-35
2023/08/21 01:44:37;;;;;;;2.97;1.40;;;;;;;25.85;48.52;102426.41;5041702;28;20125;-35
2023/08/21 01:47:04;;;;;;;3.22;1.45;;;;;;;25.84;48.51;102430.13;5047367;28;20137;-35
2023/08/21 01:49:30;;;;;;;2.50;1.50;;;;;;;25.82;48.60;102427.59;5048174;28;20052;-35
2023/08/21 01:51:57;;;;;;;2.42;0.98;;;;;;;25.82;48.39;102427.59;5040998;28;20392;-35
2023/08/21 01:54:24;;;;;;;2.83;1.10;;;;;;;25.81;48.84;102430.50;5044145;28;20437;-35
2023/08/21 01:56:50;;;;;;;2.70;1.40;;;;;;;25.82;48.70;102426.75;5039331;28;20053;-35
2023/08/21 01:59:17;;;;;;;3.05;1.27;;;;;;;25.81;48.62;102425.06;5043771;28;20144;-35
2023/08/21 02:01:44;;;;;;;3.20;1.70;;;;;;;25.80;48.59;102417.91;5045880;28;20049;-35
2023/08/21 02:04:11;;;;;;;3.53;1.73;;;;;;;25.78;48.81;102431.66;5049369;28;20126;-35
2023/08/21 02:06:38;;;;;;;3.60;1.40;;;;;;;25.77;48.92;102429.97;5043532;28;20053;-35
2023/08/21 02:09:04;;;;;;;2.75;1.17;;;;;;;25.78;48.84;102436.25;5047137;28;20329;-34
2023/08/21 02:11:32;;;;;;;2.53;1.38;;;;;;;25.78;48.85;102441.69;5045502;28;20085;-35
2023/08/21 02:13:58;;;;;;;3.10;1.55;;;;;;;25.77;48.46;102438.13;5044646;28;20511;-35
2023/08/21 02:16:25;;;;;;;3.95;1.23;;;;;;;25.77;48.90;102437.22;5044850;28;20640;-35
2023/08/21 02:18:51;;;;;;;3.25;1.30;;;;;;;25.76;48.83;102443.66;5043236;28;20132;-35
2023/08/21 02:21:18;;;;;;;4.05;1.40;;;;;;;25.75;49.00;102440.09;5040641;28;20057;-35
2023/08/21 02:23:45;;;;;;;2.85;1.20;;;;;;;25.74;48.89;102441.13;5041989;28;20322;-35
2023/08/21 02:26:11;;;;;;;2.50;1.15;;;;;;;25.72;48.89;102437.72;5041834;28;20045;-35
2023/08/21 02:28:38;;;;;;;2.95;1.15;;;;;;;25.72;48.72;102435.00;5041450;28;20392;-35
2023/08/21 02:31:05;;;;;;;3.05;1.20;;;;;;;25.71;48.97;102433.31;5041568;28;20054;-35
2023/08/21 02:33:31;;;;;;;1.95;1.20;;;;;;;25.71;49.02;102432.47;5044540;28;20128;-35
2023/08/21 02:35:58;;;;;;;2.47;1.17;;;;;;;25.71;49.11;102433.31;5039916;28;20053;-35
2023/08/21 02:38:25;;;;;;;2.90;1.60;;;;;;;25.69;48.88;102435.34;5043063;28;20228;-35
2023/08/21 02:40:51;;;;;;;2.30;1.02;;;;;;;25.68;48.94;102433.63;5043496;28;20049;-35
2023/08/21 02:43:18;;;;;;;2.03;1.17;;;;;;;25.67;49.03;102431.09;5045277;28;20080;-35
2023/08/21 02:45:45;;;;;;;1.88;1.05;;;;;;;25.66;49.02;102432.13;5043792;28;20049;-35
2023/08/21 02:48:11;;;;;;;1.85;1.10;;;;;;;25.66;49.18;102434.84;5041323;28;20049;-35
2023/08/21 02:50:38;;;;;;;1.98;1.08;;;;;;;25.66;48.55;102429.41;5039848;28;20084;-35
2023/08/21 02:53:04;;;;;;;2.05;1.17;;;;;;;25.66;48.63;102432.13;5039367;28;20397;-35
2023/08/21 02:55:31;;;;;;;3.13;1.58;;;;;;;25.65;49.24;102428.56;5044372;28;20045;-35
2023/08/21 02:57:58;;;;;;;2.28;1.10;;;;;;;25.64;49.04;102429.53;5041462;28;20103;-35
2023/08/21 03:00:24;;;;;;;2.92;1.27;;;;;;;25.62;49.32;102430.75;5041148;28;20126;-35
2023/08/21 03:02:51;;;;;;;2.67;1.35;;;;;;;25.60;49.12;102426.31;5044398;28;20077;-35
2023/08/21 03:05:17;;;;;;;1.92;1.17;;;;;;;25.60;49.12;102430.91;5048241;28;20053;-35
2023/08/21 03:07:44;;;;;;;2.38;1.20;;;;;;;25.60;49.44;102422.75;5044297;28;20449;-35
2023/08/21 03:10:11;;;;;;;2.45;1.05;;;;;;;25.58;49.28;102422.91;5045615;28;20045;-35
2023/08/21 03:12:37;;;;;;;2.55;0.93;;;;;;;25.58;49.25;102422.06;5045550;28;20069;-35
2023/08/21 03:15:05;;;;;;;1.95;1.00;;;;;;;25.57;49.23;102423.94;5042500;28;20078;-35
2023/08/21 03:17:31;;;;;;;5.07;1.70;;;;;;;25.56;49.23;102427.66;5041922;28;20122;-35
2023/08/21 03:19:58;;;;;;;1.90;1.08;;;;;;;25.56;49.25;102424.94;5041929;28;20071;-35
2023/08/21 03:22:24;;;;;;;2.95;1.10;;;;;;;25.56;49.12;102426.81;5042649;28;20045;-35
2023/08/21 03:24:51;;;;;;;3.83;1.13;;;;;;;25.54;48.91;102421.56;5041003;28;20057;-35
2023/08/21 03:27:18;;;;;;;3.08;1.23;;;;;;;25.53;49.61;102419.88;5044774;28;20426;-35
2023/08/21 03:29:48;;;;;;;2.97;1.38;;;;;;;25.53;49.33;102416.31;5038936;28;20048;-35
2023/08/21 03:32:16;;;;;;;2.00;0.98;;;;;;;25.52;49.34;102423.56;5042111;28;20052;-35
2023/08/21 03:34:43;;;;;;;2.38;1.05;;;;;;;25.51;49.40;102424.59;5044236;28;20056;-35
2023/08/21 03:37:10;;;;;;;3.80;1.48;;;;;;;25.50;49.38;102413.91;5041656;28;20053;-35
2023/08/21 03:39:37;;;;;;;3.83;0.90;;;;;;;25.50;49.37;102416.63;5046290;28;20053;-35
2023/08/21 03:42:03;;;;;;;3.00;1.10;;;;;;;25.48;49.26;102422.19;5041015;28;20091;-35
2023/08/21 03:44:30;;;;;;;2.95;0.95;;;;;;;25.48;49.44;102421.34;5040063;28;20522;-35
2023/08/21 03:46:57;;;;;;;2.38;1.02;;;;;;;25.46;49.46;102426.97;5038916;28;20077;-35
2023/08/21 03:49:23;;;;;;;2.95;1.50;;;;;;;25.44;49.36;102423.53;5040905;28;20073;-35
2023/08/21 03:51:50;;;;;;;2.20;1.00;;;;;;;25.45;49.51;102422.56;5043292;28;20106;-35
2023/08/21 03:54:16;;;;;;;3.10;1.25;;;;;;;25.45;49.24;102418.97;5046234;28;20085;-35
2023/08/21 03:56:43;;;;;;;1.98;1.30;;;;;;;25.44;49.64;102425.41;5040758;28;20132;-35
2023/08/21 03:59:09;;;;;;;2.03;1.10;;;;;;;25.42;49.42;102417.44;5042105;28;20045;-35
2023/08/21 04:01:36;;;;;;;1.88;1.02;;;;;;;25.41;49.56;102418.47;5042486;28;20142;-35
2023/08/21 04:04:03;;;;;;;2.05;1.00;;;;;;;25.40;49.94;102422.16;5039443;28;20064;-35
2023/08/21 04:06:29;;;;;;;3.20;1.20;;;;;;;25.39;49.61;102420.47;5037820;28;20044;-35
2023/08/21 04:08:56;;;;;;;2.72;1.10;;;;;;;25.39;49.46;102417.75;5039175;28;20083;-35
2023/08/21 04:11:22;;;;;;;2.08;1.30;;;;;;;25.38;49.62;102423.38;5044445;28;20065;-35
2023/08/21 04:13:49;;;;;;;3.90;1.42;;;;;;;25.38;49.76;102421.50;5042644;28;20180;-35
2023/08/21 04:16:17;;;;;;;3.13;1.95;;;;;;;25.37;49.61;102419.81;5041927;28;20384;-35
2023/08/21 04:18:44;;;;;;;3.30;1.83;;;;;;;25.37;49.66;102427.97;5043279;28;20585;-35
2023/08/21 04:21:11;;;;;;;6.03;2.72;;;;;;;25.37;49.99;102438.81;5041573;28;20376;-35
2023/08/21 04:23:37;;;;;;;3.38;2.20;;;;;;;25.36;49.86;102429.78;5046141;28;20041;-35
2023/08/21 04:26:04;;;;;;;4.25;2.30;;;;;;;25.36;49.84;102435.22;5042353;28;20392;-35
2023/08/21 04:28:32;;;;;;;4.15;2.50;;;;;;;25.37;49.42;102436.09;5043203;28;20162;-35
2023/08/21 04:30:59;;;;;;;5.07;2.67;;;;;;;25.36;49.74;102437.09;5046747;28;20057;-35
2023/08/21 04:33:27;;;;;;;4.90;2.65;;;;;;;25.35;49.60;102430.81;5046309;28;20488;-35
2023/08/21 04:35:54;;;;;;;5.05;3.00;;;;;;;25.35;49.73;102432.69;5040174;28;20057;-35
2023/08/21 04:38:21;;;;;;;4.15;2.45;;;;;;;25.34;49.88;102439.97;5044560;28;20049;-35
2023/08/21 04:40:47;;;;;;;4.47;2.80;;;;;;;25.35;49.44;102435.41;5046014;28;20045;-35
2023/08/21 04:43:14;;;;;;;7.40;2.75;;;;;;;25.33;49.30;102434.72;5047274;28;20044;-35
2023/08/21 04:45:48;;;;;;;5.10;2.60;;;;;;;25.32;49.79;102430.28;5048865;28;20803;-35
2023/08/21 04:48:15;;;;;;;4.72;2.67;;;;;;;25.32;49.47;102435.72;5042426;28;20159;-35
2023/08/21 04:50:42;;;;;;;5.55;2.60;;;;;;;25.31;49.75;102434.88;5044751;28;20060;-35
2023/08/21 04:53:09;;;;;;;5.03;3.03;;;;;;;25.32;49.42;102435.72;5043728;28;20041;-35
2023/08/21 04:55:36;;;;;;;4.65;2.70;;;;;;;25.31;49.79;102440.31;5042893;28;20137;-35
2023/08/21 04:58:03;;;;;;;4.97;2.83;;;;;;;25.30;49.72;102440.47;5046494;28;20148;-35
2023/08/21 05:00:30;;;;;;;5.72;3.08;;;;;;;25.30;49.48;102444.03;5051979;28;20036;-35
2023/08/21 05:02:57;;;;;;;4.38;2.63;;;;;;;25.30;49.69;102448.63;5045748;28;20163;-35
2023/08/21 05:05:24;;;;;;;5.32;3.13;;;;;;;25.29;49.65;102441.50;5044776;28;20045;-34
2023/08/21 05:07:52;;;;;;;4.43;3.15;;;;;;;25.29;49.92;102444.22;5044968;28;20386;-34
2023/08/21 05:10:20;;;;;;;8.90;3.50;;;;;;;25.30;49.94;102440.47;5045901;28;20053;-34
2023/08/21 05:12:46;;;;;;;6.63;2.97;;;;;;;25.28;49.75;102446.03;5048281;28;20049;-34
2023/08/21 05:15:14;;;;;;;5.32;2.97;;;;;;;25.28;49.85;102446.03;5053722;28;20045;-34
2023/08/21 05:17:41;;;;;;;5.80;3.28;;;;;;;25.29;49.50;102442.34;5052013;28;20387;-34
2023/08/21 05:20:08;;;;;;;5.43;3.33;;;;;;;25.29;49.88;102441.50;5045320;28;20111;-34
2023/08/21 05:22:35;;;;;;;5.40;3.25;;;;;;;25.29;49.27;102450.50;5045379;28;20131;-34
2023/08/21 05:25:02;;;;;;;7.20;3.45;;;;;;;25.30;49.47;102451.34;5043475;28;20085;-34
2023/08/21 05:27:29;;;;;;;6.85;3.78;;;;;;;25.29;49.55;102447.78;5043886;28;20068;-34
2023/08/21 05:29:55;;;;;;;8.05;3.97;;;;;;;25.30;49.39;102456.75;5041254;28;20061;-35
2023/08/21 05:32:22;;;;;;;8.48;4.97;;;;;;;25.31;49.64;102447.59;5045402;28;20514;-34
2023/08/21 05:34:49;;;;;;;9.10;4.93;;;;;;;25.32;49.62;102452.00;5044123;28;20127;-34
2023/08/21 05:37:15;;;;;;;13.30;5.15;;;;;;;25.33;49.74;102464.59;5047920;28;20060;-34
2023/08/21 05:39:42;;;;;;;7.78;4.50;;;;;;;25.34;49.57;102458.13;5049695;28;20393;-34
2023/08/21 05:42:08;;;;;;;9.48;5.13;;;;;;;25.34;49.94;102447.28;5045714;28;20054;-34
2023/08/21 05:44:35;;;;;;;8.32;4.43;;;;;;;25.36;49.19;102450.66;5045519;28;20045;-34
2023/08/21 05:47:02;;;;;;;10.48;5.18;;;;;;;25.36;49.30;102450.66;5040843;28;20104;-34
2023/08/21 05:49:29;;;;;;;10.55;5.07;;;;;;;25.36;49.20;102450.66;5052531;28;20055;-34
2023/08/21 05:51:58;;;;;;;8.70;4.78;;;;;;;25.36;49.15;102450.66;5042368;28;20444;-35
2023/08/21 05:54:25;;;;;;;10.70;5.00;;;;;;;25.36;49.12;102456.94;5042664;28;20079;-34
2023/08/21 05:56:52;;;;;;;12.55;5.35;;;;;;;25.38;49.11;102462.22;5045367;28;20111;-34
2023/08/21 05:59:31;;;;;;;9.57;4.35;;;;;;;25.36;49.31;102458.81;5044085;28;20063;-34
2023/08/21 06:01:58;;;;;;;9.80;4.50;;;;;;;25.38;49.42;102459.50;5044758;28;20055;-34
2023/08/21 06:04:25;;;;;;;10.45;4.80;;;;;;;25.37;49.62;102455.09;5042776;28;20120;-34
2023/08/21 06:06:51;;;;;;;12.52;5.18;;;;;;;25.37;49.43;102455.09;5046349;28;20057;-34
2023/08/21 06:09:19;;;;;;;10.80;4.78;;;;;;;25.38;49.19;102458.66;5045058;28;20639;-34
2023/08/21 06:11:46;;;;;;;8.77;4.22;;;;;;;25.38;49.24;102458.66;5045593;28;20341;-34
2023/08/21 06:14:12;;;;;;;9.52;4.60;;;;;;;25.39;49.36;102457.63;5048131;28;20111;-34
2023/08/21 06:16:39;;;;;;;9.77;4.50;;;;;;;25.38;49.32;102458.66;5044022;28;20080;-34
2023/08/21 06:19:06;;;;;;;8.55;3.88;;;;;;;25.38;49.53;102459.50;5042416;28;20071;-34
2023/08/21 06:21:33;;;;;;;8.90;4.15;;;;;;;25.38;49.22;102464.94;5046721;28;20056;-34
2023/08/21 06:23:59;;;;;;;15.23;5.20;;;;;;;25.39;49.12;102463.06;5044521;28;20087;-34
2023/08/21 06:26:26;;;;;;;8.93;3.80;;;;;;;25.40;49.51;102464.75;5045728;28;20037;-35
2023/08/21 06:28:52;;;;;;;8.13;3.97;;;;;;;25.41;49.44;102469.16;5045037;28;20056;-35
2023/08/21 06:31:20;;;;;;;9.02;3.63;;;;;;;25.41;49.55;102470.03;5043921;28;20084;-35
2023/08/21 06:33:47;;;;;;;11.95;3.72;;;;;;;25.43;49.68;102470.72;5045049;28;20080;-34
2023/08/21 06:36:14;;;;;;;7.78;2.97;;;;;;;25.44;49.19;102482.44;5043533;28;20045;-35
2023/08/21 06:38:40;;;;;;;7.35;3.17;;;;;;;25.45;49.16;102473.25;5043223;28;20095;-34
2023/08/21 06:41:07;;;;;;;9.10;4.00;;;;;;;25.46;49.36;102470.41;5041177;28;20042;-34
2023/08/21 06:43:38;;;;;;;8.05;3.17;;;;;;;25.49;49.21;102469.22;5044084;28;20102;-34
2023/08/21 06:46:10;;;;;;;7.03;2.88;;;;;;;25.50;49.24;102466.34;5037451;28;20452;-34
2023/08/21 06:48:42;;;;;;;8.05;3.42;;;;;;;25.51;49.27;102470.75;5039442;28;20454;-34
2023/08/21 06:51:10;;;;;;;8.73;3.10;;;;;;;25.51;49.03;102473.47;5039246;28;20049;-34
2023/08/21 06:53:37;;;;;;;7.38;2.65;;;;;;;25.52;49.04;102479.75;5036655;28;20041;-34
2023/08/21 06:56:04;;;;;;;8.82;3.08;;;;;;;25.52;49.14;102474.31;5034676;28;20049;-35
2023/08/21 06:58:31;;;;;;;8.10;2.72;;;;;;;25.52;49.16;102475.16;5044450;28;20041;-34
2023/08/21 07:00:57;;;;;;;9.38;3.42;;;;;;;25.53;49.49;102476.03;5042270;28;20187;-34
2023/08/21 07:03:24;;;;;;;9.15;2.40;;;;;;;25.52;48.96;102475.16;5042197;28;20360;-35
2023/08/21 07:05:58;;;;;;;12.20;2.45;;;;;;;25.52;49.11;102474.31;5046725;28;20114;-35
2023/08/21 07:08:25;;;;;;;7.97;2.78;;;;;;;25.53;49.21;102471.44;5041080;28;20526;-34
2023/08/21 07:10:52;;;;;;;7.78;2.90;;;;;;;25.55;48.90;102469.41;5044347;28;20114;-35
2023/08/21 07:13:19;;;;;;;5.50;1.98;;;;;;;25.55;49.31;102472.13;5043277;28;20049;-35
2023/08/21 07:15:46;;;;;;;6.13;2.08;;;;;;;25.57;49.02;102471.97;5047240;28;20077;-34
2023/08/21 07:18:13;;;;;;;7.10;2.45;;;;;;;25.57;49.06;102469.25;5043883;28;20122;-34
2023/08/21 07:20:40;;;;;;;10.13;2.33;;;;;;;25.59;48.86;102480.78;5044976;28;20049;-35
2023/08/21 07:23:07;;;;;;;8.20;2.00;;;;;;;25.59;48.98;102473.50;5046349;28;20106;-35
2023/08/21 07:25:33;;;;;;;5.47;2.33;;;;;;;25.58;49.01;102474.53;5044819;28;20049;-35
2023/08/21 07:28:00;;;;;;;7.40;2.33;;;;;;;25.59;48.81;102483.50;5047913;28;20420;-35
2023/08/21 07:30:27;;;;;;;7.10;2.17;;;;;;;25.59;48.70;102480.78;5046196;28;20626;-34
2023/08/21 07:32:54;;;;;;;6.97;1.77;;;;;;;25.59;48.95;102487.06;5047179;28;20048;-35
2023/08/21 07:35:20;;;;;;;5.47;1.80;;;;;;;25.59;48.79;102489.78;5045375;28;20049;-34
2023/08/21 07:37:47;;;;;;;5.28;1.65;;;;;;;25.60;48.93;102490.63;5040881;28;20053;-35
2023/08/21 07:40:14;;;;;;;5.15;1.80;;;;;;;25.60;49.11;102496.91;5043584;28;20049;-34
2023/08/21 07:42:40;;;;;;;6.30;2.03;;;;;;;25.62;48.80;102498.63;5042902;28;20076;-35
2023/08/21 07:45:07;;;;;;;5.25;1.80;;;;;;;25.63;48.87;102494.91;5044431;28;20436;-35
2023/08/21 07:47:34;;;;;;;5.47;1.42;;;;;;;25.63;48.90;102497.63;5040265;28;20077;-35
2023/08/21 07:50:04;;;;;;;6.70;1.60;;;;;;;25.63;48.99;102495.75;5041301;28;20147;-35
2023/08/21 07:52:31;;;;;;;4.30;1.55;;;;;;;25.63;48.72;102495.75;5040451;28;20053;-35
2023/08/21 07:54:59;;;;;;;4.65;2.15;;;;;;;25.63;49.05;102497.63;5047291;28;20357;-35
2023/08/21 07:57:25;;;;;;;5.57;1.55;;;;;;;25.64;49.01;102494.72;5039632;28;20076;-35
2023/08/21 07:59:52;;;;;;;6.10;1.38;;;;;;;25.64;48.97;102496.59;5042081;28;20515;-34
2023/08/21 08:02:22;;;;;;;4.38;1.42;;;;;;;25.64;48.83;102494.72;5040932;28;20397;-34
2023/08/21 08:04:49;;;;;;;4.97;1.80;;;;;;;25.64;48.71;102499.31;5043028;28;20362;-35
2023/08/21 08:07:16;;;;;;;6.97;1.38;;;;;;;25.63;48.84;102505.75;5043894;28;20076;-34
2023/08/21 08:09:43;;;;;;;6.05;1.90;;;;;;;25.64;48.48;102504.75;5042062;28;20136;-35
2023/08/21 08:12:09;;;;;;;3.90;1.30;;;;;;;25.65;48.78;102511.88;5042198;28;20390;-35
2023/08/21 08:14:36;;;;;;;7.85;1.98;;;;;;;25.66;48.80;102508.16;5042965;28;20056;-35
2023/08/21 08:17:03;;;;;;;7.32;1.80;;;;;;;25.66;48.78;102498.13;5038518;28;20107;-35
2023/08/21 08:19:30;;;;;;;6.30;1.52;;;;;;;25.67;48.78;102493.56;5044657;28;20081;-34
2023/08/21 08:21:56;;;;;;;6.18;1.70;;;;;;;25.68;48.80;102492.53;5042574;28;20150;-34
2023/08/21 08:24:23;;;;;;;6.15;1.73;;;;;;;25.69;48.78;102491.50;5047018;28;20049;-35
2023/08/21 08:26:49;;;;;;;4.45;1.38;;;;;;;25.69;48.79;102494.22;5046206;28;20224;-35
2023/08/21 08:29:16;;;;;;;7.72;1.70;;;;;;;25.70;48.77;102493.22;5042161;28;20064;-35
2023/08/21 08:31:43;;;;;;;4.78;1.25;;;;;;;25.71;48.78;102500.34;5037890;28;20486;-35
2023/08/21 08:34:09;;;;;;;5.50;1.38;;;;;;;25.71;48.66;102495.78;5040324;28;20144;-35
2023/08/21 08:36:36;;;;;;;6.75;1.40;;;;;;;25.71;48.74;102503.91;5049156;28;20080;-35
2023/08/21 08:39:03;;;;;;;7.57;1.95;;;;;;;25.72;48.53;102504.75;5048171;28;20081;-35
2023/08/21 08:42:01;;;;;;;4.82;2.17;;;;;;;25.70;48.68;102512.25;5047786;28;20091;-35
2023/08/21 08:44:28;;;;;;;4.70;1.48;;;;;;;25.72;48.66;102504.75;5044598;28;20129;-35
2023/08/21 08:46:56;;;;;;;4.05;1.15;;;;;;;25.73;48.33;102501.91;5044929;28;20157;-35
2023/08/21 08:49:23;;;;;;;6.65;1.67;;;;;;;25.74;48.51;102494.59;5045207;28;20045;-35
2023/08/21 08:51:51;;;;;;;7.60;1.58;;;;;;;25.76;48.42;102503.41;5043718;28;20139;-35
2023/08/21 08:54:19;;;;;;;6.80;1.65;;;;;;;25.75;48.52;102501.72;5050307;28;20049;-35
2023/08/21 08:56:46;;;;;;;3.65;1.35;;;;;;;25.76;48.49;102501.56;5041354;28;20054;-35
2023/08/21 08:59:15;;;;;;;3.90;1.30;;;;;;;25.78;48.37;102496.00;5041351;28;21729;-35
2023/08/21 09:01:42;;;;;;;6.50;1.73;;;;;;;25.79;48.69;102498.53;5041432;28;20046;-35
2023/08/21 09:04:09;;;;;;;5.10;1.80;;;;;;;25.81;48.46;102495.69;5043450;28;20198;-35
2023/08/21 09:06:36;;;;;;;5.45;1.70;;;;;;;25.80;48.20;102494.81;5043749;28;20041;-35
2023/08/21 09:09:04;;;;;;;4.78;1.50;;;;;;;25.81;48.54;102498.41;5045208;28;20099;-35
2023/08/21 09:11:32;;;;;;;6.40;1.95;;;;;;;25.82;48.16;102502.81;5037204;28;20069;-35
2023/08/21 09:13:59;;;;;;;6.75;1.38;;;;;;;25.82;48.24;102498.22;5041417;28;20684;-35
2023/08/21 09:16:26;;;;;;;3.88;1.58;;;;;;;25.83;48.49;102497.19;5041662;28;20371;-35
2023/08/21 09:18:58;;;;;;;4.25;1.30;;;;;;;25.84;48.59;102498.88;5038991;28;20149;-35
2023/08/21 09:21:27;;;;;;;5.35;1.50;;;;;;;25.84;48.57;102498.88;5036310;28;20631;-35
2023/08/21 09:23:59;;;;;;;5.75;1.45;;;;;;;25.85;48.52;102497.06;5041833;28;20148;-35
2023/08/21 09:26:26;;;;;;;6.13;1.30;;;;;;;25.85;48.18;102494.34;5038708;28;20081;-35
2023/08/21 09:28:54;;;;;;;5.10;1.60;;;;;;;25.86;48.20;102493.31;5039718;28;20158;-35
2023/08/21 09:31:29;;;;;;;5.68;1.42;;;;;;;25.88;48.22;102495.84;5042963;28;20428;-35
2023/08/21 09:34:01;;;;;;;5.47;1.50;;;;;;;25.89;48.13;102489.41;5042830;28;20055;-35
2023/08/21 09:36:28;;;;;;;6.22;1.75;;;;;;;25.92;48.09;102491.78;5041943;28;20045;-34
2023/08/21 09:38:55;;;;;;;5.35;1.80;;;;;;;25.95;48.04;102495.03;5046266;28;20374;-34
2023/08/21 09:41:23;;;;;;;6.75;1.52;;;;;;;25.96;48.07;102487.72;5042552;28;20080;-34
2023/08/21 09:43:50;;;;;;;8.25;2.05;;;;;;;25.99;48.03;102487.38;5046597;28;20301;-34
2023/08/21 09:46:25;;;;;;;5.95;1.38;;;;;;;26.02;47.83;102487.06;5040595;28;20468;-34
2023/08/21 09:48:53;;;;;;;4.72;1.38;;;;;;;26.07;47.86;102484.69;5045904;28;21177;-34
2023/08/21 09:51:20;;;;;;;7.45;1.73;;;;;;;26.11;47.70;102480.63;5037473;28;20532;-34
2023/08/21 09:53:50;;;;;;;4.35;1.40;;;;;;;26.17;47.55;102476.38;5041515;28;20506;-34
2023/08/21 09:56:19;;;;;;;6.15;1.67;;;;;;;26.23;47.43;102478.44;5034975;28;20413;-34
2023/08/21 09:58:50;;;;;;;9.48;2.03;;;;;;;26.27;47.51;102477.06;5042080;28;20397;-34
2023/08/21 10:01:20;;;;;;;5.57;1.50;;;;;;;26.34;47.15;102472.66;5039587;28;20052;-35
2023/08/21 10:03:47;;;;;;;4.15;1.10;;;;;;;26.40;47.19;102482.84;5040013;28;20049;-35
2023/08/21 10:06:20;;;;;;;5.53;1.30;;;;;;;26.45;47.32;102472.31;5036007;28;20392;-35
2023/08/21 10:08:53;;;;;;;4.65;1.42;;;;;;;26.50;47.16;102469.97;5034775;28;20095;-35
2023/08/21 10:11:21;;;;;;;4.85;1.40;;;;;;;26.57;46.86;102473.72;5033802;28;20123;-35
2023/08/21 10:13:52;;;;;;;5.07;1.10;;;;;;;26.62;46.71;102470.47;5040432;28;20054;-35
2023/08/21 10:16:21;;;;;;;4.18;1.20;;;;;;;26.68;46.81;102468.94;5044149;28;20479;-35
2023/08/21 10:18:48;;;;;;;5.07;1.05;;;;;;;26.71;46.85;102472.16;5039879;28;20217;-35
2023/08/21 10:21:19;;;;;;;4.28;1.08;;;;;;;26.77;46.68;102473.31;5045898;28;20061;-35
2023/08/21 10:23:48;;;;;;;6.78;1.08;;;;;;;26.82;46.49;102474.53;5047345;28;20071;-35
2023/08/21 10:26:15;;;;;;;5.18;1.33;;;;;;;26.86;46.57;102472.31;5044886;28;20504;-35
2023/08/21 10:28:53;;;;;;;3.15;1.10;;;;;;;26.90;46.57;102472.81;5040301;28;20081;-35
2023/08/21 10:31:38;;;;;;;9.98;1.95;;;;;;;26.93;46.12;102470.56;5041499;28;20044;-36
2023/08/21 10:34:07;;;;;;;13.85;2.92;;;;;;;26.98;46.23;102479.09;5044288;28;20344;-36
2023/08/21 10:36:43;;;;;;;10.88;2.35;;;;;;;27.01;45.82;102466.97;5045107;28;20044;-36
2023/08/21 10:39:24;;;;;;;11.55;2.47;;;;;;;27.02;46.22;102475.00;5045143;28;20056;-36
2023/08/21 10:41:59;;;;;;;12.65;2.83;;;;;;;27.03;45.83;102471.25;5040953;28;20060;-36
2023/08/21 10:44:41;;;;;;;17.75;3.17;;;;;;;27.06;45.63;102475.50;5048313;28;20045;-36
2023/08/21 10:47:19;;;;;;;4.45;1.73;;;;;;;27.07;45.99;102467.16;5040363;28;20436;-36
2023/08/21 10:49:56;;;;;;;13.38;1.88;;;;;;;27.11;46.24;102461.38;5040603;28;20107;-36
2023/08/21 10:52:26;;;;;;;4.35;1.60;;;;;;;27.14;45.65;102461.06;5047877;28;20195;-36
2023/08/21 10:55:00;;;;;;;5.32;1.90;;;;;;;27.16;46.15;102464.44;5044176;28;20068;-36
2023/08/21 10:57:29;;;;;;;7.22;1.20;;;;;;;27.19;45.65;102459.47;5044336;28;20048;-36
2023/08/21 11:00:11;;;;;;;5.63;1.50;;;;;;;27.22;45.78;102464.59;5039677;28;20087;-36
2023/08/21 11:02:39;;;;;;;6.35;1.60;;;;;;;27.26;45.62;102465.94;5037137;28;20115;-36
2023/08/21 11:05:07;;;;;;;7.28;1.40;;;;;;;27.28;45.66;102469.31;5036681;28;20049;-36
2023/08/21 11:07:45;;;;;;;4.03;1.40;;;;;;;27.32;45.33;102458.91;5038214;28;20045;-36
2023/08/21 11:10:22;;;;;;;4.07;1.30;;;;;;;27.37;45.58;102461.09;5044621;28;20099;-36
2023/08/21 11:12:57;;;;;;;4.78;1.00;;;;;;;27.38;44.92;102450.06;5033484;28;20556;-36
2023/08/21 11:15:25;;;;;;;4.82;1.30;;;;;;;27.42;45.14;102454.13;5043191;28;20376;-38
2023/08/21 11:17:56;;;;;;;5.47;1.23;;;;;;;27.45;45.34;102453.75;5039733;28;20127;-36
2023/08/21 11:20:28;;;;;;;3.67;0.98;;;;;;;27.48;44.70;102458.84;5044319;28;20067;-36
2023/08/21 11:23:06;;;;;;;6.05;1.63;;;;;;;27.47;44.71;102462.59;5046152;28;20067;-36
2023/08/21 11:25:34;;;;;;;2.45;1.00;;;;;;;27.46;44.76;102455.47;5045539;28;20476;-36
2023/08/21 11:28:02;;;;;;;4.60;1.25;;;;;;;27.47;44.70;102456.31;5044624;28;20122;-36